createdAt,value
2019-06-01T00:00:56.446Z,23.73
2019-06-01T00:06:00.270Z,23.72
2019-06-01T00:11:04.707Z,23.73
2019-06-01T00:16:08.493Z,23.69
2019-06-01T00:21:12.171Z,23.69
2019-06-01T00:26:15.823Z,23.72
2019-06-01T00:31:19.539Z,23.71
2019-06-01T00:36:23.311Z,23.70
2019-06-01T00:41:27.040Z,23.69
2019-06-01T00:46:30.883Z,23.70
2019-06-01T00:51:34.577Z,23.69
2019-06-01T00:56:38.219Z,23.69
2019-06-01T01:01:43.787Z,23.70
2019-06-01T01:06:49.233Z,23.65
2019-06-01T01:11:53.363Z,23.66
2019-06-01T01:16:57.383Z,23.66
2019-06-01T01:22:01.051Z,23.63
2019-06-01T01:27:05.023Z,23.62
2019-06-01T01:32:09.155Z,23.62
2019-06-01T01:37:12.876Z,23.61
2019-06-01T01:42:16.600Z,23.61
2019-06-01T01:47:20.710Z,23.58
2019-06-01T01:52:24.448Z,23.58
2019-06-01T01:57:28.272Z,23.59
2019-06-01T02:02:31.903Z,23.57
2019-06-01T02:07:35.756Z,23.58
2019-06-01T02:12:39.476Z,23.59
2019-06-01T02:17:43.279Z,23.61
2019-06-01T02:22:46.982Z,23.62
2019-06-01T02:27:50.811Z,23.62
2019-06-01T02:32:56.291Z,23.62
2019-06-01T02:38:00.445Z,23.57
2019-06-01T02:43:06.855Z,23.56
2019-06-01T02:48:10.651Z,23.58
2019-06-01T02:53:14.419Z,23.56
2019-06-01T02:58:18.260Z,23.57
2019-06-01T03:03:22.631Z,23.55
2019-06-01T03:08:28.552Z,23.57
2019-06-01T03:13:34.033Z,23.54
2019-06-01T03:18:39.831Z,23.53
2019-06-01T03:23:46.220Z,23.57
2019-06-01T03:28:52.043Z,23.55
2019-06-01T03:33:56.021Z,23.57
2019-06-01T03:38:59.991Z,23.54
2019-06-01T03:44:06.445Z,23.52
2019-06-01T03:49:11.855Z,23.53
2019-06-01T03:54:15.776Z,23.52
2019-06-01T03:59:19.488Z,23.51
2019-06-01T04:04:23.593Z,23.49
2019-06-01T04:09:27.353Z,23.49
2019-06-01T04:14:31.061Z,23.49
2019-06-01T04:19:34.826Z,23.51
2019-06-01T04:24:38.460Z,23.51
2019-06-01T04:29:42.167Z,23.53
2019-06-01T04:34:45.949Z,23.52
2019-06-01T04:39:49.560Z,23.52
2019-06-01T04:44:53.256Z,23.51
2019-06-01T04:49:56.885Z,23.51
2019-06-01T04:55:00.572Z,23.50
2019-06-01T05:00:12.647Z,23.50
2019-06-01T05:05:13.344Z,23.49
2019-06-01T05:10:17.248Z,23.49
2019-06-01T05:15:21.147Z,23.55
2019-06-01T05:20:24.964Z,23.58
2019-06-01T05:25:28.680Z,23.68
2019-06-01T05:30:32.445Z,23.74
2019-06-01T05:35:36.084Z,23.74
2019-06-01T05:40:39.736Z,23.70
2019-06-01T05:45:43.510Z,23.74
2019-06-01T05:50:47.232Z,23.82
2019-06-01T05:55:50.839Z,23.87
2019-06-01T06:00:54.470Z,23.98
2019-06-01T06:05:58.088Z,24.01
2019-06-01T06:11:01.862Z,24.08
2019-06-01T06:16:05.681Z,24.14
2019-06-01T06:21:09.508Z,24.14
2019-06-01T06:26:15.516Z,24.19
2019-06-01T06:31:19.145Z,24.23
2019-06-01T06:36:24.468Z,24.24
2019-06-01T06:41:28.190Z,24.31
2019-06-01T06:46:31.903Z,24.36
2019-06-01T06:51:35.616Z,24.40
2019-06-01T06:56:39.240Z,24.46
2019-06-01T07:01:42.961Z,24.48
2019-06-01T07:06:47.092Z,24.51
2019-06-01T07:11:50.920Z,24.56
2019-06-01T07:16:54.559Z,24.58
2019-06-01T07:21:58.190Z,24.59
2019-06-01T07:27:01.853Z,24.51
2019-06-01T07:32:05.403Z,24.53
2019-06-01T07:37:09.830Z,24.64
2019-06-01T07:42:13.478Z,24.68
2019-06-01T07:47:17.090Z,24.77
2019-06-01T07:52:20.576Z,24.92
2019-06-01T07:57:25.443Z,24.90
2019-06-01T08:02:30.715Z,25.02
2019-06-01T08:07:34.816Z,25.08
2019-06-01T08:12:38.526Z,25.09
2019-06-01T08:17:42.167Z,25.14
2019-06-01T08:23:19.568Z,25.16
2019-06-01T08:28:24.384Z,25.06
2019-06-01T08:33:30.200Z,25.05
2019-06-01T08:38:33.823Z,25.03
2019-06-01T08:43:37.306Z,25.08
2019-06-01T08:48:40.956Z,25.13
2019-06-01T08:53:44.662Z,25.16
2019-06-01T08:58:48.366Z,25.18
2019-06-01T09:03:52.502Z,25.12
2019-06-01T09:08:56.272Z,25.16
2019-06-01T09:14:00.213Z,25.14
2019-06-01T09:19:04.191Z,25.14
2019-06-01T09:24:07.933Z,25.07
2019-06-01T09:29:11.513Z,25.00
2019-06-01T09:34:15.175Z,25.05
2019-06-01T09:39:18.858Z,24.98
2019-06-01T09:44:22.493Z,24.97
2019-06-01T09:49:27.248Z,24.92
2019-06-01T09:54:32.710Z,24.89
2019-06-01T09:59:36.392Z,24.88
2019-06-01T10:04:40.588Z,24.81
2019-06-01T10:09:44.228Z,24.88
2019-06-01T10:14:47.900Z,24.79
2019-06-01T10:19:51.469Z,24.83
2019-06-01T10:24:55.103Z,24.88
2019-06-01T10:29:58.854Z,24.86
2019-06-01T10:35:02.601Z,24.82
2019-06-01T10:40:07.545Z,24.86
2019-06-01T10:45:11.542Z,24.87
2019-06-01T10:50:17.641Z,24.94
2019-06-01T10:55:20.929Z,24.87
2019-06-01T11:00:37.816Z,24.86
2019-06-01T11:05:30.613Z,24.78
2019-06-01T11:10:34.874Z,24.86
2019-06-01T11:15:39.101Z,24.88
2019-06-01T11:20:43.641Z,24.87
2019-06-01T11:25:47.514Z,24.86
2019-06-01T11:30:51.111Z,24.87
2019-06-01T11:35:55.071Z,24.86
2019-06-01T11:40:58.752Z,24.85
2019-06-01T11:46:02.419Z,24.79
2019-06-01T11:51:06.065Z,24.75
2019-06-01T11:56:09.867Z,24.71
2019-06-01T12:01:13.690Z,24.74
2019-06-01T12:06:17.299Z,24.68
2019-06-01T12:11:21.167Z,24.66
2019-06-01T12:16:25.261Z,24.74
2019-06-01T12:21:28.900Z,24.64
2019-06-01T12:26:32.378Z,24.67
2019-06-01T12:31:36.008Z,24.68
2019-06-01T12:36:40.937Z,24.73
2019-06-01T12:41:45.755Z,24.69
2019-06-01T12:46:49.300Z,24.77
2019-06-01T12:51:53.155Z,24.70
2019-06-01T12:56:56.967Z,24.74
2019-06-01T13:02:00.746Z,24.81
2019-06-01T13:07:04.839Z,24.79
2019-06-01T13:12:09.567Z,24.64
2019-06-01T13:17:13.290Z,24.83
2019-06-01T13:22:17.113Z,24.73
2019-06-01T13:27:20.824Z,24.74
2019-06-01T13:32:24.652Z,24.78
2019-06-01T13:37:28.405Z,24.82
2019-06-01T13:42:32.042Z,24.81
2019-06-01T13:47:35.812Z,24.92
2019-06-01T13:52:39.643Z,24.89
2019-06-01T13:57:44.204Z,24.93
2019-06-01T14:02:52.105Z,24.92
2019-06-01T14:07:53.615Z,24.97
2019-06-01T14:12:57.111Z,24.99
2019-06-01T14:18:03.652Z,25.11
2019-06-01T14:23:07.381Z,25.09
2019-06-01T14:28:11.057Z,25.13
2019-06-01T14:33:14.762Z,25.23
2019-06-01T14:38:18.402Z,25.21
2019-06-01T14:43:22.167Z,25.27
2019-06-01T14:48:25.809Z,25.30
2019-06-01T14:53:29.501Z,25.30
2019-06-01T14:58:33.223Z,25.33
2019-06-01T15:03:36.846Z,25.32
2019-06-01T15:08:40.579Z,25.39
2019-06-01T15:13:44.281Z,25.33
2019-06-01T15:18:47.909Z,25.35
2019-06-01T15:23:52.000Z,25.30
2019-06-01T15:28:56.964Z,25.28
2019-06-01T15:34:01.873Z,25.21
2019-06-01T15:39:23.686Z,25.15
2019-06-01T15:44:13.574Z,25.05
2019-06-01T15:49:17.152Z,24.95
2019-06-01T15:54:20.983Z,25.03
2019-06-01T15:59:24.859Z,25.12
2019-06-01T16:04:28.328Z,25.30
2019-06-01T16:09:42.214Z,25.36
2019-06-01T16:14:37.786Z,25.31
2019-06-01T16:19:41.425Z,25.20
2019-06-01T16:24:44.990Z,25.22
2019-06-01T16:29:48.450Z,25.23
2019-06-01T16:34:52.004Z,25.18
2019-06-01T16:39:59.781Z,25.14
2019-06-01T16:45:01.704Z,25.15
2019-06-01T16:50:09.252Z,25.26
2019-06-01T16:55:14.263Z,25.07
2019-06-01T17:00:18.632Z,25.14
2019-06-01T17:05:22.164Z,25.16
2019-06-01T17:10:26.798Z,25.16
2019-06-01T17:15:30.346Z,25.07
2019-06-01T17:20:42.185Z,25.16
2019-06-01T17:25:45.877Z,25.13
2019-06-01T17:30:49.653Z,25.13
2019-06-01T17:35:53.343Z,25.08
2019-06-01T17:40:56.842Z,25.01
2019-06-01T17:46:00.800Z,24.95
2019-06-01T17:51:06.622Z,24.98
2019-06-01T17:56:10.644Z,24.99
2019-06-01T18:01:14.168Z,25.04
2019-06-01T18:06:17.820Z,25.00
2019-06-01T18:11:21.378Z,25.01
2019-06-01T18:16:25.154Z,25.01
2019-06-01T18:21:28.891Z,25.02
2019-06-01T18:26:32.611Z,25.00
2019-06-01T18:31:36.222Z,24.95
2019-06-01T18:36:39.696Z,24.95
2019-06-01T18:41:43.288Z,24.94
2019-06-01T18:46:47.178Z,24.98
2019-06-01T18:51:50.913Z,24.93
2019-06-01T18:57:09.011Z,24.95
2019-06-01T19:02:01.562Z,24.97
2019-06-01T19:07:05.359Z,24.96
2019-06-01T19:12:09.450Z,24.97
2019-06-01T19:17:14.436Z,25.02
2019-06-01T19:22:18.056Z,25.03
2019-06-01T19:27:24.000Z,24.92
2019-06-01T19:32:28.072Z,24.92
2019-06-01T19:37:37.318Z,24.99
2019-06-01T19:42:39.880Z,25.01
2019-06-01T19:47:43.699Z,25.05
2019-06-01T19:52:47.274Z,25.11
2019-06-01T19:57:51.167Z,25.07
2019-06-01T20:02:55.266Z,25.05
2019-06-01T20:07:59.033Z,25.06
2019-06-01T20:13:03.060Z,25.08
2019-06-01T20:18:07.477Z,25.08
2019-06-01T20:23:11.593Z,25.13
2019-06-01T20:28:15.687Z,25.12
2019-06-01T20:33:20.545Z,25.11
2019-06-01T20:38:24.372Z,24.93
2019-06-01T20:43:30.967Z,25.00
2019-06-01T20:48:36.150Z,24.95
2019-06-01T20:53:41.785Z,24.94
2019-06-01T20:58:45.623Z,25.05
2019-06-01T21:03:49.183Z,25.00
2019-06-01T21:08:53.360Z,24.97
2019-06-01T21:13:57.463Z,24.83
2019-06-01T21:19:00.942Z,24.87
2019-06-01T21:24:05.310Z,24.89
2019-06-01T21:29:08.794Z,24.90
2019-06-01T21:34:12.417Z,24.88
2019-06-01T21:39:15.929Z,24.80
2019-06-01T21:44:21.626Z,24.77
2019-06-01T21:49:25.937Z,24.77
2019-06-01T21:54:29.822Z,24.70
2019-06-01T21:59:33.464Z,24.77
2019-06-01T22:04:37.166Z,24.77
2019-06-01T22:09:40.880Z,24.80
2019-06-01T22:14:44.610Z,24.82
2019-06-01T22:19:48.333Z,24.79
2019-06-01T22:24:51.890Z,24.78
2019-06-01T22:29:55.859Z,24.90
2019-06-01T22:34:59.358Z,24.92
2019-06-01T22:40:03.314Z,24.92
2019-06-01T22:45:08.486Z,24.89
2019-06-01T22:50:12.484Z,24.83
2019-06-01T22:55:16.214Z,24.79
2019-06-01T23:00:19.986Z,24.79
2019-06-01T23:05:24.933Z,24.75
2019-06-01T23:10:33.082Z,24.71
2019-06-01T23:15:34.243Z,24.72
2019-06-01T23:20:37.788Z,24.75
2019-06-01T23:25:41.489Z,24.76
2019-06-01T23:30:45.535Z,24.79
2019-06-01T23:35:49.255Z,24.78
2019-06-01T23:40:53.091Z,24.74
2019-06-01T23:45:56.874Z,24.83
2019-06-01T23:51:00.569Z,24.86
2019-06-01T23:56:05.272Z,24.84
